DAL1515 KLAX-KLAS
Flight info
| Callsign | DAL1515 |
|---|---|
| Flight time | 0h 43m |
| Altitude | FL270 |
| Route | ORCKA5 MISEN RNDRZ4 |
| Aircraft | B739/M-SDE2E3FGHIRWXY/LB1 |
Departure
| Time | 2026-05-05 01:34 |
|---|---|
| Airport | Los Angeles International Airport (KLAX) |
Arrival
| Time | 2026-05-05 02:17 |
|---|---|
| Airport | Harry Reid International Airport (KLAS) |
| Time | Latitude | Longitude | Altitude | Speed | Heading |
|---|---|---|---|---|---|
| 2026-05-05 00:51 | 33.94716 | -118.40738 | 134 ft | 0 kts | 189° |
| 2026-05-05 01:23 | 33.94729 | -118.40735 | 133 ft | 2 kts | 189° |
| 2026-05-05 01:23 | 33.94744 | -118.40732 | 133 ft | 2 kts | 189° |
| 2026-05-05 01:23 | 33.94753 | -118.40731 | 133 ft | 2 kts | 169° |
| 2026-05-05 01:23 | 33.94765 | -118.40740 | 133 ft | 2 kts | 118° |
| 2026-05-05 01:24 | 33.94768 | -118.40752 | 133 ft | 1 kts | 86° |
| 2026-05-05 01:24 | 33.94767 | -118.40761 | 133 ft | 1 kts | 83° |
| 2026-05-05 01:27 | 33.94767 | -118.40760 | 133 ft | 1 kts | 83° |
| 2026-05-05 01:27 | 33.94773 | -118.40688 | 133 ft | 14 kts | 84° |
| 2026-05-05 01:28 | 33.94817 | -118.40599 | 132 ft | 12 kts | 7° |
| 2026-05-05 01:28 | 33.94868 | -118.40563 | 131 ft | 10 kts | 81° |
| 2026-05-05 01:28 | 33.94877 | -118.40485 | 130 ft | 9 kts | 83° |
| 2026-05-05 01:28 | 33.94885 | -118.40408 | 130 ft | 9 kts | 83° |
| 2026-05-05 01:29 | 33.94893 | -118.40334 | 129 ft | 9 kts | 83° |
| 2026-05-05 01:29 | 33.94900 | -118.40262 | 129 ft | 8 kts | 83° |
| 2026-05-05 01:29 | 33.94907 | -118.40195 | 128 ft | 8 kts | 83° |
| 2026-05-05 01:29 | 33.94914 | -118.40126 | 127 ft | 8 kts | 83° |
| 2026-05-05 01:30 | 33.94920 | -118.40061 | 127 ft | 8 kts | 83° |
| 2026-05-05 01:30 | 33.94927 | -118.39994 | 125 ft | 9 kts | 83° |
| 2026-05-05 01:30 | 33.94945 | -118.39931 | 123 ft | 0 kts | 41° |
| 2026-05-05 01:32 | 33.94951 | -118.39925 | 123 ft | 5 kts | 34° |
| 2026-05-05 01:32 | 33.95021 | -118.39920 | 122 ft | 13 kts | 328° |
| 2026-05-05 01:32 | 33.95039 | -118.39978 | 122 ft | 0 kts | 264° |
| 2026-05-05 01:33 | 33.95035 | -118.40023 | 123 ft | 27 kts | 264° |
| 2026-05-05 01:33 | 33.94983 | -118.40526 | 130 ft | 92 kts | 263° |
| 2026-05-05 01:33 | 33.94879 | -118.41537 | 133 ft | 148 kts | 263° |
| 2026-05-05 01:33 | 33.94743 | -118.42864 | 577 ft | 160 kts | 264° |
| 2026-05-05 01:34 | 33.94633 | -118.44179 | 1215 ft | 164 kts | 265° |
| 2026-05-05 01:34 | 33.94540 | -118.45546 | 1809 ft | 168 kts | 265° |
| 2026-05-05 01:34 | 33.94442 | -118.46994 | 2145 ft | 183 kts | 264° |
| 2026-05-05 01:34 | 33.94285 | -118.48547 | 2567 ft | 193 kts | 261° |
| 2026-05-05 01:35 | 33.94062 | -118.50187 | 2920 ft | 208 kts | 262° |
| 2026-05-05 01:35 | 33.93839 | -118.52002 | 3223 ft | 227 kts | 262° |
| 2026-05-05 01:35 | 33.93618 | -118.53898 | 3794 ft | 234 kts | 262° |
| 2026-05-05 01:35 | 33.93374 | -118.55855 | 4316 ft | 244 kts | 262° |
| 2026-05-05 01:36 | 33.93036 | -118.57877 | 4849 ft | 252 kts | 253° |
| 2026-05-05 01:36 | 33.92327 | -118.59846 | 5274 ft | 266 kts | 240° |
| 2026-05-05 01:36 | 33.91213 | -118.61596 | 6041 ft | 265 kts | 225° |
| 2026-05-05 01:36 | 33.89712 | -118.62846 | 6720 ft | 269 kts | 205° |
| 2026-05-05 01:37 | 33.87890 | -118.63283 | 7434 ft | 272 kts | 181° |
| 2026-05-05 01:37 | 33.86006 | -118.62781 | 7847 ft | 288 kts | 158° |
| 2026-05-05 01:37 | 33.84400 | -118.61362 | 8562 ft | 291 kts | 134° |
| 2026-05-05 01:37 | 33.83316 | -118.59314 | 9202 ft | 296 kts | 112° |
| 2026-05-05 01:38 | 33.82916 | -118.56928 | 9929 ft | 294 kts | 90° |
| 2026-05-05 01:38 | 33.83263 | -118.54524 | 10467 ft | 301 kts | 69° |
| 2026-05-05 01:38 | 33.84389 | -118.52397 | 10928 ft | 309 kts | 46° |
| 2026-05-05 01:38 | 33.86125 | -118.50801 | 11296 ft | 320 kts | 32° |
| 2026-05-05 01:39 | 33.88056 | -118.49338 | 11518 ft | 337 kts | 33° |
| 2026-05-05 01:39 | 33.89971 | -118.47639 | 11873 ft | 349 kts | 39° |
| 2026-05-05 01:39 | 33.91808 | -118.45611 | 12014 ft | 369 kts | 44° |
| 2026-05-05 01:39 | 33.93580 | -118.43309 | 12262 ft | 384 kts | 49° |
| 2026-05-05 01:40 | 33.95223 | -118.40703 | 12518 ft | 399 kts | 55° |
| 2026-05-05 01:40 | 33.96756 | -118.37890 | 12963 ft | 407 kts | 57° |
| 2026-05-05 01:40 | 33.98280 | -118.34996 | 13593 ft | 410 kts | 57° |
| 2026-05-05 01:40 | 33.99812 | -118.32100 | 14181 ft | 414 kts | 57° |
| 2026-05-05 01:41 | 34.01381 | -118.29193 | 14723 ft | 419 kts | 56° |
| 2026-05-05 01:41 | 34.02994 | -118.26262 | 15320 ft | 423 kts | 56° |
| 2026-05-05 01:41 | 34.04635 | -118.23323 | 15925 ft | 427 kts | 55° |
| 2026-05-05 01:41 | 34.06307 | -118.20355 | 16471 ft | 432 kts | 56° |
| 2026-05-05 01:42 | 34.07999 | -118.17365 | 17035 ft | 436 kts | 55° |
| 2026-05-05 01:42 | 34.09719 | -118.14329 | 17636 ft | 439 kts | 56° |
| 2026-05-05 01:42 | 34.11455 | -118.11261 | 18205 ft | 442 kts | 55° |
| 2026-05-05 01:42 | 34.13196 | -118.08180 | 18591 ft | 450 kts | 55° |
| 2026-05-05 01:43 | 34.14962 | -118.05048 | 19028 ft | 456 kts | 55° |
| 2026-05-05 01:43 | 34.16744 | -118.01881 | 19528 ft | 460 kts | 55° |
| 2026-05-05 01:43 | 34.18537 | -117.98697 | 20064 ft | 463 kts | 56° |
| 2026-05-05 01:43 | 34.20349 | -117.95479 | 20448 ft | 469 kts | 56° |
| 2026-05-05 01:44 | 34.22202 | -117.92181 | 20811 ft | 476 kts | 56° |
| 2026-05-05 01:44 | 34.24060 | -117.88869 | 21277 ft | 480 kts | 56° |
| 2026-05-05 01:44 | 34.25924 | -117.85539 | 21796 ft | 482 kts | 55° |
| 2026-05-05 01:44 | 34.27798 | -117.82195 | 22337 ft | 483 kts | 56° |
| 2026-05-05 01:45 | 34.29669 | -117.78849 | 22838 ft | 484 kts | 56° |
| 2026-05-05 01:45 | 34.31552 | -117.75493 | 23364 ft | 485 kts | 55° |
| 2026-05-05 01:45 | 34.33438 | -117.72127 | 23842 ft | 486 kts | 56° |
| 2026-05-05 01:45 | 34.35338 | -117.68730 | 24301 ft | 488 kts | 56° |
| 2026-05-05 01:46 | 34.37267 | -117.65352 | 24676 ft | 491 kts | 55° |
| 2026-05-05 01:46 | 34.39249 | -117.61989 | 25012 ft | 495 kts | 54° |
| 2026-05-05 01:46 | 34.41272 | -117.58617 | 25381 ft | 498 kts | 54° |
| 2026-05-05 01:46 | 34.43319 | -117.55236 | 25753 ft | 500 kts | 54° |
| 2026-05-05 01:47 | 34.45373 | -117.51842 | 26117 ft | 503 kts | 54° |
| 2026-05-05 01:47 | 34.47431 | -117.48432 | 26494 ft | 505 kts | 54° |
| 2026-05-05 01:47 | 34.49507 | -117.44972 | 26832 ft | 508 kts | 54° |
| 2026-05-05 01:47 | 34.51583 | -117.41502 | 27004 ft | 511 kts | 55° |
| 2026-05-05 01:48 | 34.53665 | -117.38016 | 27019 ft | 510 kts | 56° |
| 2026-05-05 01:48 | 34.55738 | -117.34534 | 27012 ft | 505 kts | 55° |
| 2026-05-05 01:48 | 34.57775 | -117.31097 | 27003 ft | 502 kts | 55° |
| 2026-05-05 01:48 | 34.59812 | -117.27653 | 26984 ft | 507 kts | 56° |
| 2026-05-05 01:49 | 34.61859 | -117.24183 | 26971 ft | 506 kts | 56° |
| 2026-05-05 01:49 | 34.63907 | -117.20710 | 26964 ft | 505 kts | 56° |
| 2026-05-05 01:49 | 34.65946 | -117.17249 | 26958 ft | 506 kts | 56° |
| 2026-05-05 01:49 | 34.67975 | -117.13796 | 26939 ft | 502 kts | 55° |
| 2026-05-05 01:50 | 34.70004 | -117.10349 | 26934 ft | 504 kts | 55° |
| 2026-05-05 01:50 | 34.72030 | -117.06910 | 26918 ft | 503 kts | 56° |
| 2026-05-05 01:50 | 34.74054 | -117.03453 | 26920 ft | 504 kts | 56° |
| 2026-05-05 01:50 | 34.76078 | -117.00001 | 26922 ft | 501 kts | 55° |
| 2026-05-05 01:51 | 34.78114 | -116.96538 | 26921 ft | 502 kts | 56° |
| 2026-05-05 01:51 | 34.80138 | -116.93091 | 26920 ft | 504 kts | 56° |
| 2026-05-05 01:51 | 34.82170 | -116.89629 | 26936 ft | 506 kts | 55° |
| 2026-05-05 01:51 | 34.84207 | -116.86154 | 26943 ft | 505 kts | 56° |
| 2026-05-05 01:52 | 34.86223 | -116.82707 | 26948 ft | 500 kts | 55° |
| 2026-05-05 01:52 | 34.88238 | -116.79264 | 26950 ft | 502 kts | 56° |
| 2026-05-05 01:52 | 34.90254 | -116.75819 | 26942 ft | 503 kts | 56° |
| 2026-05-05 01:52 | 34.92281 | -116.72330 | 26916 ft | 502 kts | 56° |
| 2026-05-05 01:53 | 34.94275 | -116.68857 | 26909 ft | 503 kts | 56° |
| 2026-05-05 01:53 | 34.96251 | -116.65370 | 26902 ft | 501 kts | 56° |
| 2026-05-05 01:53 | 34.98213 | -116.61878 | 26882 ft | 501 kts | 57° |
| 2026-05-05 01:53 | 35.00181 | -116.58373 | 26878 ft | 502 kts | 57° |
| 2026-05-05 01:54 | 35.02143 | -116.54883 | 26875 ft | 498 kts | 57° |
| 2026-05-05 01:54 | 35.04067 | -116.51462 | 26867 ft | 483 kts | 57° |
| 2026-05-05 01:54 | 35.05942 | -116.48117 | 26860 ft | 469 kts | 57° |
| 2026-05-05 01:54 | 35.07762 | -116.44879 | 26865 ft | 462 kts | 57° |
| 2026-05-05 01:55 | 35.09603 | -116.41661 | 26861 ft | 468 kts | 55° |
| 2026-05-05 01:55 | 35.11624 | -116.38509 | 26796 ft | 471 kts | 50° |
| 2026-05-05 01:55 | 35.13767 | -116.35541 | 26518 ft | 466 kts | 46° |
| 2026-05-05 01:55 | 35.15987 | -116.32661 | 26075 ft | 463 kts | 46° |
| 2026-05-05 01:56 | 35.18210 | -116.29847 | 25587 ft | 461 kts | 45° |
| 2026-05-05 01:56 | 35.20440 | -116.27033 | 25093 ft | 459 kts | 46° |
| 2026-05-05 01:56 | 35.22639 | -116.24246 | 24605 ft | 456 kts | 45° |
| 2026-05-05 01:56 | 35.24803 | -116.21444 | 24103 ft | 454 kts | 47° |
| 2026-05-05 01:57 | 35.26914 | -116.18616 | 23600 ft | 448 kts | 48° |
| 2026-05-05 01:57 | 35.28960 | -116.15820 | 23120 ft | 440 kts | 47° |
| 2026-05-05 01:57 | 35.30962 | -116.13063 | 22641 ft | 431 kts | 48° |
| 2026-05-05 01:57 | 35.32925 | -116.10351 | 22168 ft | 423 kts | 47° |
| 2026-05-05 01:58 | 35.34865 | -116.07668 | 21705 ft | 415 kts | 48° |
| 2026-05-05 01:58 | 35.36752 | -116.05055 | 21242 ft | 408 kts | 48° |
| 2026-05-05 01:58 | 35.38610 | -116.02488 | 20793 ft | 401 kts | 48° |
| 2026-05-05 01:58 | 35.40444 | -115.99957 | 20341 ft | 395 kts | 49° |
| 2026-05-05 01:59 | 35.42240 | -115.97478 | 19907 ft | 388 kts | 48° |
| 2026-05-05 01:59 | 35.44008 | -115.95036 | 19468 ft | 382 kts | 48° |
| 2026-05-05 01:59 | 35.45751 | -115.92630 | 19035 ft | 376 kts | 48° |
| 2026-05-05 01:59 | 35.47479 | -115.90242 | 18593 ft | 373 kts | 48° |
| 2026-05-05 02:00 | 35.49200 | -115.87864 | 18159 ft | 376 kts | 48° |
| 2026-05-05 02:00 | 35.50917 | -115.85488 | 17712 ft | 371 kts | 48° |
| 2026-05-05 02:00 | 35.52601 | -115.83158 | 17418 ft | 360 kts | 48° |
| 2026-05-05 02:00 | 35.54239 | -115.80891 | 17089 ft | 356 kts | 48° |
| 2026-05-05 02:01 | 35.55895 | -115.78598 | 16679 ft | 362 kts | 48° |
| 2026-05-05 02:01 | 35.57550 | -115.76303 | 16244 ft | 358 kts | 48° |
| 2026-05-05 02:01 | 35.59186 | -115.74034 | 16030 ft | 349 kts | 48° |
| 2026-05-05 02:01 | 35.60790 | -115.71843 | 16025 ft | 344 kts | 47° |
| 2026-05-05 02:02 | 35.62412 | -115.69655 | 16028 ft | 349 kts | 47° |
| 2026-05-05 02:02 | 35.64053 | -115.67452 | 16030 ft | 351 kts | 47° |
| 2026-05-05 02:02 | 35.65684 | -115.65260 | 16032 ft | 348 kts | 47° |
| 2026-05-05 02:02 | 35.67311 | -115.63065 | 16031 ft | 349 kts | 47° |
| 2026-05-05 02:03 | 35.68941 | -115.60861 | 16033 ft | 348 kts | 47° |
| 2026-05-05 02:03 | 35.70576 | -115.58651 | 16031 ft | 348 kts | 46° |
| 2026-05-05 02:03 | 35.72256 | -115.56512 | 16029 ft | 347 kts | 43° |
| 2026-05-05 02:03 | 35.74104 | -115.54620 | 16018 ft | 348 kts | 33° |
| 2026-05-05 02:04 | 35.76151 | -115.53014 | 16005 ft | 350 kts | 28° |
| 2026-05-05 02:04 | 35.78274 | -115.51560 | 15986 ft | 351 kts | 26° |
| 2026-05-05 02:04 | 35.80423 | -115.50143 | 15919 ft | 352 kts | 25° |
| 2026-05-05 02:04 | 35.82577 | -115.48709 | 15515 ft | 354 kts | 26° |
| 2026-05-05 02:05 | 35.84740 | -115.47236 | 15078 ft | 354 kts | 27° |
| 2026-05-05 02:05 | 35.86879 | -115.45752 | 14657 ft | 354 kts | 27° |
| 2026-05-05 02:05 | 35.89012 | -115.44260 | 14240 ft | 353 kts | 27° |
| 2026-05-05 02:05 | 35.91137 | -115.42764 | 13810 ft | 352 kts | 27° |
| 2026-05-05 02:06 | 35.93252 | -115.41282 | 13400 ft | 350 kts | 27° |
| 2026-05-05 02:06 | 35.95358 | -115.39811 | 12999 ft | 348 kts | 27° |
| 2026-05-05 02:06 | 35.97448 | -115.38319 | 12544 ft | 348 kts | 29° |
| 2026-05-05 02:06 | 35.99466 | -115.36682 | 12180 ft | 344 kts | 38° |
| 2026-05-05 02:07 | 36.01015 | -115.34488 | 11803 ft | 338 kts | 64° |
| 2026-05-05 02:07 | 36.01633 | -115.31764 | 11426 ft | 327 kts | 91° |
| 2026-05-05 02:07 | 36.01551 | -115.29009 | 11098 ft | 320 kts | 99° |
| 2026-05-05 02:07 | 36.01332 | -115.26303 | 10672 ft | 317 kts | 99° |
| 2026-05-05 02:08 | 36.01121 | -115.23636 | 10282 ft | 311 kts | 99° |
| 2026-05-05 02:08 | 36.00944 | -115.21014 | 9985 ft | 303 kts | 98° |
| 2026-05-05 02:08 | 36.00799 | -115.18457 | 9737 ft | 293 kts | 97° |
| 2026-05-05 02:08 | 36.00671 | -115.15985 | 9507 ft | 283 kts | 97° |
| 2026-05-05 02:09 | 36.00556 | -115.13633 | 9422 ft | 268 kts | 97° |
| 2026-05-05 02:09 | 36.00445 | -115.11394 | 9349 ft | 256 kts | 98° |
| 2026-05-05 02:09 | 36.00335 | -115.09237 | 9097 ft | 253 kts | 98° |
| 2026-05-05 02:09 | 36.00220 | -115.07073 | 8759 ft | 254 kts | 98° |
| 2026-05-05 02:10 | 36.00108 | -115.04911 | 8469 ft | 253 kts | 98° |
| 2026-05-05 02:10 | 35.99998 | -115.02745 | 8176 ft | 252 kts | 98° |
| 2026-05-05 02:10 | 35.99893 | -115.00608 | 7979 ft | 246 kts | 97° |
| 2026-05-05 02:10 | 35.99856 | -114.98544 | 7877 ft | 242 kts | 95° |
| 2026-05-05 02:11 | 35.99863 | -114.96419 | 7303 ft | 257 kts | 94° |
| 2026-05-05 02:11 | 35.99947 | -114.94214 | 6892 ft | 262 kts | 85° |
| 2026-05-05 02:11 | 36.00518 | -114.92090 | 6539 ft | 264 kts | 58° |
| 2026-05-05 02:11 | 36.01834 | -114.90554 | 6154 ft | 263 kts | 31° |
| 2026-05-05 02:12 | 36.03531 | -114.89816 | 5802 ft | 255 kts | 358° |
| 2026-05-05 02:12 | 36.06501 | -114.91387 | 5385 ft | 227 kts | 316° |
| 2026-05-05 02:12 | 36.07584 | -114.92734 | 5127 ft | 216 kts | 295° |
| 2026-05-05 02:13 | 36.07948 | -114.94415 | 4889 ft | 199 kts | 261° |
| 2026-05-05 02:13 | 36.07553 | -114.95982 | 4653 ft | 190 kts | 245° |
| 2026-05-05 02:13 | 36.07288 | -114.97563 | 4424 ft | 191 kts | 263° |
| 2026-05-05 02:13 | 36.07352 | -114.99202 | 4168 ft | 185 kts | 266° |
| 2026-05-05 02:14 | 36.07373 | -115.00725 | 3899 ft | 173 kts | 263° |
| 2026-05-05 02:14 | 36.07338 | -115.02135 | 3713 ft | 161 kts | 263° |
| 2026-05-05 02:14 | 36.07358 | -115.03542 | 3495 ft | 163 kts | 264° |
| 2026-05-05 02:14 | 36.07370 | -115.04926 | 3258 ft | 164 kts | 263° |
| 2026-05-05 02:15 | 36.07353 | -115.06344 | 3034 ft | 165 kts | 264° |
| 2026-05-05 02:15 | 36.07373 | -115.07728 | 2841 ft | 160 kts | 268° |
| 2026-05-05 02:15 | 36.07401 | -115.09106 | 2629 ft | 160 kts | 264° |
| 2026-05-05 02:15 | 36.07398 | -115.10480 | 2410 ft | 161 kts | 263° |
| 2026-05-05 02:16 | 36.07376 | -115.11857 | 2216 ft | 161 kts | 265° |
| 2026-05-05 02:16 | 36.07375 | -115.13225 | 2072 ft | 155 kts | 265° |
| 2026-05-05 02:16 | 36.07343 | -115.14346 | 2096 ft | 104 kts | 255° |
| 2026-05-05 02:16 | 36.07373 | -115.14968 | 2117 ft | 50 kts | 265° |
| 2026-05-05 02:17 | 36.07385 | -115.15287 | 2128 ft | 29 kts | 284° |
| 2026-05-05 02:17 | 36.07445 | -115.15455 | 2134 ft | 16 kts | 299° |
| 2026-05-05 02:17 | 36.07492 | -115.15555 | 2137 ft | 10 kts | 306° |
| 2026-05-05 02:17 | 36.07518 | -115.15595 | 2138 ft | 0 kts | 309° |
| 2026-05-05 02:18 | 36.07530 | -115.15613 | 2139 ft | 5 kts | 311° |
| 2026-05-05 02:19 | 36.07567 | -115.15659 | 2140 ft | 10 kts | 315° |
| 2026-05-05 02:19 | 36.07625 | -115.15732 | 2141 ft | 14 kts | 314° |
| 2026-05-05 02:19 | 36.07695 | -115.15806 | 2143 ft | 12 kts | 331° |
| 2026-05-05 02:19 | 36.07776 | -115.15826 | 2142 ft | 12 kts | 2° |
| 2026-05-05 02:20 | 36.07858 | -115.15819 | 2140 ft | 11 kts | 37° |
| 2026-05-05 02:20 | 36.07878 | -115.15721 | 2138 ft | 13 kts | 88° |
| 2026-05-05 02:20 | 36.07880 | -115.15599 | 2133 ft | 16 kts | 90° |
| 2026-05-05 02:20 | 36.07877 | -115.15454 | 2126 ft | 18 kts | 89° |
| 2026-05-05 02:21 | 36.07877 | -115.15291 | 2122 ft | 19 kts | 91° |
| 2026-05-05 02:21 | 36.07873 | -115.15118 | 2117 ft | 21 kts | 91° |
| 2026-05-05 02:21 | 36.07866 | -115.14942 | 2110 ft | 22 kts | 94° |
| 2026-05-05 02:21 | 36.07853 | -115.14748 | 2104 ft | 23 kts | 94° |
| 2026-05-05 02:22 | 36.07840 | -115.14544 | 2097 ft | 25 kts | 94° |
| 2026-05-05 02:22 | 36.07826 | -115.14324 | 2089 ft | 27 kts | 89° |
| 2026-05-05 02:22 | 36.07825 | -115.14102 | 2083 ft | 23 kts | 90° |
| 2026-05-05 02:22 | 36.07828 | -115.14011 | 2080 ft | 9 kts | 87° |
| 2026-05-05 02:23 | 36.07829 | -115.13928 | 2077 ft | 11 kts | 91° |
| 2026-05-05 02:23 | 36.07826 | -115.13827 | 2074 ft | 13 kts | 90° |
| 2026-05-05 02:23 | 36.07827 | -115.13716 | 2072 ft | 13 kts | 90° |
| 2026-05-05 02:23 | 36.07840 | -115.13600 | 2068 ft | 14 kts | 40° |
| 2026-05-05 02:24 | 36.07924 | -115.13628 | 2068 ft | 13 kts | 314° |
| 2026-05-05 02:24 | 36.07981 | -115.13702 | 2069 ft | 11 kts | 316° |
| 2026-05-05 02:24 | 36.08014 | -115.13765 | 2070 ft | 7 kts | 290° |
| 2026-05-05 02:24 | 36.08039 | -115.13804 | 2070 ft | 5 kts | 313° |
| 2026-05-05 02:25 | 36.08058 | -115.13829 | 2071 ft | 3 kts | 312° |
| 2026-05-05 02:25 | 36.08065 | -115.13837 | 2071 ft | 0 kts | 312° |
| 2026-05-05 02:25 | 36.08068 | -115.13841 | 2071 ft | 0 kts | 311° |